sensor_id;sensor_type;location;lat;lon;timestamp;temperature;humidity
22035;DHT22;11181;51.002;4.356;2022-09-16T00:02:08;17.70;99.90
22035;DHT22;11181;51.002;4.356;2022-09-16T00:04:35;17.60;99.90
22035;DHT22;11181;51.002;4.356;2022-09-16T00:07:02;17.60;99.90
22035;DHT22;11181;51.002;4.356;2022-09-16T00:09:29;17.50;99.90
22035;DHT22;11181;51.002;4.356;2022-09-16T00:11:56;17.50;99.90
22035;DHT22;11181;51.002;4.356;2022-09-16T00:14:24;17.50;99.90
22035;DHT22;11181;51.002;4.356;2022-09-16T00:16:51;17.50;99.90
22035;DHT22;11181;51.002;4.356;2022-09-16T00:19:18;17.50;99.90
22035;DHT22;11181;51.002;4.356;2022-09-16T00:21:46;17.40;99.90
22035;DHT22;11181;51.002;4.356;2022-09-16T00:24:14;17.40;99.90
22035;DHT22;11181;51.002;4.356;2022-09-16T00:26:41;17.40;99.90
22035;DHT22;11181;51.002;4.356;2022-09-16T00:29:09;17.40;99.90
22035;DHT22;11181;51.002;4.356;2022-09-16T00:31:37;17.40;99.90
22035;DHT22;11181;51.002;4.356;2022-09-16T00:34:04;17.40;99.90
22035;DHT22;11181;51.002;4.356;2022-09-16T00:36:31;17.30;99.90
22035;DHT22;11181;51.002;4.356;2022-09-16T00:38:58;17.30;99.90
22035;DHT22;11181;51.002;4.356;2022-09-16T00:41:26;17.20;99.90
22035;DHT22;11181;51.002;4.356;2022-09-16T00:43:57;17.20;99.90
22035;DHT22;11181;51.002;4.356;2022-09-16T00:46:33;17.20;99.90
22035;DHT22;11181;51.002;4.356;2022-09-16T00:49:05;17.20;99.90
22035;DHT22;11181;51.002;4.356;2022-09-16T00:51:36;17.10;99.90
22035;DHT22;11181;51.002;4.356;2022-09-16T00:54:05;17.00;99.90
22035;DHT22;11181;51.002;4.356;2022-09-16T00:56:38;16.90;99.90
22035;DHT22;11181;51.002;4.356;2022-09-16T00:59:10;16.90;99.90
22035;DHT22;11181;51.002;4.356;2022-09-16T01:01:40;16.90;99.90
22035;DHT22;11181;51.002;4.356;2022-09-16T01:04:15;16.80;99.90
22035;DHT22;11181;51.002;4.356;2022-09-16T01:06:43;16.70;99.90
22035;DHT22;11181;51.002;4.356;2022-09-16T01:09:10;16.70;99.90
22035;DHT22;11181;51.002;4.356;2022-09-16T01:11:37;16.60;99.90
22035;DHT22;11181;51.002;4.356;2022-09-16T01:14:05;16.60;99.90
22035;DHT22;11181;51.002;4.356;2022-09-16T01:16:54;16.50;99.90
22035;DHT22;11181;51.002;4.356;2022-09-16T01:19:38;16.50;99.90
22035;DHT22;11181;51.002;4.356;2022-09-16T01:22:19;16.40;99.90
22035;DHT22;11181;51.002;4.356;2022-09-16T01:24:51;16.30;99.90
22035;DHT22;11181;51.002;4.356;2022-09-16T01:27:44;16.20;99.90
22035;DHT22;11181;51.002;4.356;2022-09-16T01:33:05;16.20;99.90
22035;DHT22;11181;51.002;4.356;2022-09-16T01:35:46;16.20;99.90
22035;DHT22;11181;51.002;4.356;2022-09-16T01:38:27;16.20;99.90
22035;DHT22;11181;51.002;4.356;2022-09-16T01:41:06;16.20;99.90
22035;DHT22;11181;51.002;4.356;2022-09-16T01:43:42;16.20;99.90
22035;DHT22;11181;51.002;4.356;2022-09-16T01:46:19;16.20;99.90
22035;DHT22;11181;51.002;4.356;2022-09-16T01:48:54;16.20;99.90
22035;DHT22;11181;51.002;4.356;2022-09-16T01:51:27;16.20;99.90
22035;DHT22;11181;51.002;4.356;2022-09-16T01:54:02;16.20;99.90
22035;DHT22;11181;51.002;4.356;2022-09-16T01:56:35;16.10;99.90
22035;DHT22;11181;51.002;4.356;2022-09-16T01:59:07;16.10;99.90
22035;DHT22;11181;51.002;4.356;2022-09-16T02:01:38;16.00;99.90
22035;DHT22;11181;51.002;4.356;2022-09-16T02:04:13;16.00;99.90
22035;DHT22;11181;51.002;4.356;2022-09-16T02:06:42;16.00;99.90
22035;DHT22;11181;51.002;4.356;2022-09-16T02:09:13;16.00;99.90
22035;DHT22;11181;51.002;4.356;2022-09-16T02:11:43;16.00;99.90
22035;DHT22;11181;51.002;4.356;2022-09-16T02:14:14;15.90;99.90
22035;DHT22;11181;51.002;4.356;2022-09-16T02:16:46;16.00;99.90
22035;DHT22;11181;51.002;4.356;2022-09-16T02:19:18;16.00;99.90
22035;DHT22;11181;51.002;4.356;2022-09-16T02:21:46;15.90;99.90
22035;DHT22;11181;51.002;4.356;2022-09-16T02:24:17;15.90;99.90
22035;DHT22;11181;51.002;4.356;2022-09-16T02:26:49;15.90;99.90
22035;DHT22;11181;51.002;4.356;2022-09-16T02:29:20;15.80;99.90
22035;DHT22;11181;51.002;4.356;2022-09-16T02:31:50;15.80;99.90
22035;DHT22;11181;51.002;4.356;2022-09-16T02:34:22;15.70;99.90
22035;DHT22;11181;51.002;4.356;2022-09-16T02:36:52;15.80;99.90
22035;DHT22;11181;51.002;4.356;2022-09-16T02:39:23;15.80;99.90
22035;DHT22;11181;51.002;4.356;2022-09-16T02:41:52;15.80;99.90
22035;DHT22;11181;51.002;4.356;2022-09-16T02:44:22;15.80;99.90
22035;DHT22;11181;51.002;4.356;2022-09-16T02:46:57;15.80;99.90
22035;DHT22;11181;51.002;4.356;2022-09-16T02:49:29;15.90;99.90
22035;DHT22;11181;51.002;4.356;2022-09-16T02:52:07;15.80;99.90
22035;DHT22;11181;51.002;4.356;2022-09-16T02:54:42;15.60;99.90
22035;DHT22;11181;51.002;4.356;2022-09-16T02:57:13;15.60;99.90
22035;DHT22;11181;51.002;4.356;2022-09-16T02:59:41;15.60;99.90
22035;DHT22;11181;51.002;4.356;2022-09-16T03:02:08;15.60;99.90
22035;DHT22;11181;51.002;4.356;2022-09-16T03:04:36;15.60;99.90
22035;DHT22;11181;51.002;4.356;2022-09-16T03:07:04;15.60;99.90
22035;DHT22;11181;51.002;4.356;2022-09-16T03:09:33;15.60;99.90
22035;DHT22;11181;51.002;4.356;2022-09-16T03:12:13;15.60;99.90
22035;DHT22;11181;51.002;4.356;2022-09-16T03:15:06;15.70;99.90
22035;DHT22;11181;51.002;4.356;2022-09-16T03:17:54;15.70;99.90
22035;DHT22;11181;51.002;4.356;2022-09-16T03:20:33;15.70;99.90
22035;DHT22;11181;51.002;4.356;2022-09-16T03:23:12;15.70;99.90
22035;DHT22;11181;51.002;4.356;2022-09-16T03:25:48;15.70;99.90
22035;DHT22;11181;51.002;4.356;2022-09-16T03:28:19;15.70;99.90
22035;DHT22;11181;51.002;4.356;2022-09-16T03:31:05;15.70;99.90
22035;DHT22;11181;51.002;4.356;2022-09-16T03:33:36;15.80;99.90
22035;DHT22;11181;51.002;4.356;2022-09-16T03:36:08;15.70;99.90
22035;DHT22;11181;51.002;4.356;2022-09-16T03:38:38;15.70;99.90
22035;DHT22;11181;51.002;4.356;2022-09-16T03:41:07;15.70;99.90
22035;DHT22;11181;51.002;4.356;2022-09-16T03:43:34;15.70;99.90
22035;DHT22;11181;51.002;4.356;2022-09-16T03:46:01;15.70;99.90
22035;DHT22;11181;51.002;4.356;2022-09-16T03:48:28;15.70;99.90
22035;DHT22;11181;51.002;4.356;2022-09-16T03:50:55;15.70;99.90
22035;DHT22;11181;51.002;4.356;2022-09-16T03:53:23;15.80;99.90
22035;DHT22;11181;51.002;4.356;2022-09-16T03:55:50;15.80;99.90
22035;DHT22;11181;51.002;4.356;2022-09-16T03:58:17;15.90;99.90
22035;DHT22;11181;51.002;4.356;2022-09-16T04:00:47;15.90;99.90
22035;DHT22;11181;51.002;4.356;2022-09-16T04:03:15;15.90;99.90
22035;DHT22;11181;51.002;4.356;2022-09-16T04:05:42;15.90;99.90
22035;DHT22;11181;51.002;4.356;2022-09-16T04:08:09;15.90;99.90
22035;DHT22;11181;51.002;4.356;2022-09-16T04:10:37;15.90;99.90
22035;DHT22;11181;51.002;4.356;2022-09-16T04:13:04;15.80;99.90
22035;DHT22;11181;51.002;4.356;2022-09-16T04:15:31;15.90;99.90
22035;DHT22;11181;51.002;4.356;2022-09-16T04:18:01;15.90;99.90
22035;DHT22;11181;51.002;4.356;2022-09-16T04:20:28;16.00;99.90
22035;DHT22;11181;51.002;4.356;2022-09-16T04:22:55;16.00;99.90
22035;DHT22;11181;51.002;4.356;2022-09-16T04:25:22;16.10;99.90
22035;DHT22;11181;51.002;4.356;2022-09-16T04:27:51;16.00;99.90
22035;DHT22;11181;51.002;4.356;2022-09-16T04:30:18;15.50;99.90
22035;DHT22;11181;51.002;4.356;2022-09-16T04:32:45;15.30;99.90
22035;DHT22;11181;51.002;4.356;2022-09-16T04:35:12;15.40;99.90
22035;DHT22;11181;51.002;4.356;2022-09-16T04:37:39;15.50;99.90
22035;DHT22;11181;51.002;4.356;2022-09-16T04:40:06;15.50;99.90
22035;DHT22;11181;51.002;4.356;2022-09-16T04:42:33;15.70;99.90
22035;DHT22;11181;51.002;4.356;2022-09-16T04:45:01;15.80;99.90
22035;DHT22;11181;51.002;4.356;2022-09-16T04:47:29;16.00;99.90
22035;DHT22;11181;51.002;4.356;2022-09-16T04:49:56;16.10;99.90
22035;DHT22;11181;51.002;4.356;2022-09-16T04:52:23;16.20;99.90
22035;DHT22;11181;51.002;4.356;2022-09-16T04:54:50;16.30;99.90
22035;DHT22;11181;51.002;4.356;2022-09-16T04:57:17;16.40;99.90
22035;DHT22;11181;51.002;4.356;2022-09-16T04:59:43;16.50;99.90
22035;DHT22;11181;51.002;4.356;2022-09-16T05:02:12;16.50;99.90
22035;DHT22;11181;51.002;4.356;2022-09-16T05:04:39;16.50;99.90
22035;DHT22;11181;51.002;4.356;2022-09-16T05:07:05;16.50;99.90
22035;DHT22;11181;51.002;4.356;2022-09-16T05:09:33;16.50;99.90
22035;DHT22;11181;51.002;4.356;2022-09-16T05:12:02;16.60;99.90
22035;DHT22;11181;51.002;4.356;2022-09-16T05:14:29;16.60;99.90
22035;DHT22;11181;51.002;4.356;2022-09-16T05:16:55;16.60;99.90
22035;DHT22;11181;51.002;4.356;2022-09-16T05:19:24;16.50;99.90
22035;DHT22;11181;51.002;4.356;2022-09-16T05:21:51;16.40;99.90
22035;DHT22;11181;51.002;4.356;2022-09-16T05:24:17;16.10;99.90
22035;DHT22;11181;51.002;4.356;2022-09-16T05:26:44;15.70;99.90
22035;DHT22;11181;51.002;4.356;2022-09-16T05:29:13;15.70;99.90
22035;DHT22;11181;51.002;4.356;2022-09-16T05:31:42;15.90;99.90
22035;DHT22;11181;51.002;4.356;2022-09-16T05:34:12;16.00;99.90
22035;DHT22;11181;51.002;4.356;2022-09-16T05:36:41;15.80;99.90
22035;DHT22;11181;51.002;4.356;2022-09-16T05:39:09;15.80;99.90
22035;DHT22;11181;51.002;4.356;2022-09-16T05:41:37;15.80;99.90
22035;DHT22;11181;51.002;4.356;2022-09-16T05:44:04;15.70;99.90
22035;DHT22;11181;51.002;4.356;2022-09-16T05:46:32;15.60;99.90
22035;DHT22;11181;51.002;4.356;2022-09-16T05:48:59;15.60;99.90
22035;DHT22;11181;51.002;4.356;2022-09-16T05:51:26;15.60;99.90
22035;DHT22;11181;51.002;4.356;2022-09-16T05:53:55;15.70;99.90
22035;DHT22;11181;51.002;4.356;2022-09-16T05:56:22;15.70;99.90
22035;DHT22;11181;51.002;4.356;2022-09-16T05:58:51;15.80;99.90
22035;DHT22;11181;51.002;4.356;2022-09-16T06:01:20;15.70;99.90
22035;DHT22;11181;51.002;4.356;2022-09-16T06:03:49;15.70;99.90
22035;DHT22;11181;51.002;4.356;2022-09-16T06:06:20;15.90;99.90
22035;DHT22;11181;51.002;4.356;2022-09-16T06:08:49;16.00;99.90
22035;DHT22;11181;51.002;4.356;2022-09-16T06:11:18;16.10;99.90
22035;DHT22;11181;51.002;4.356;2022-09-16T06:13:45;16.10;99.90
22035;DHT22;11181;51.002;4.356;2022-09-16T06:16:12;16.00;99.90
22035;DHT22;11181;51.002;4.356;2022-09-16T06:18:40;16.00;99.90
22035;DHT22;11181;51.002;4.356;2022-09-16T06:21:09;16.00;99.90
22035;DHT22;11181;51.002;4.356;2022-09-16T06:23:37;16.00;99.90
22035;DHT22;11181;51.002;4.356;2022-09-16T06:26:06;16.00;99.90
22035;DHT22;11181;51.002;4.356;2022-09-16T06:28:35;16.00;99.90
22035;DHT22;11181;51.002;4.356;2022-09-16T06:31:04;16.00;99.90
22035;DHT22;11181;51.002;4.356;2022-09-16T06:33:32;15.90;99.90
22035;DHT22;11181;51.002;4.356;2022-09-16T06:36:02;15.90;99.90
22035;DHT22;11181;51.002;4.356;2022-09-16T06:38:29;16.00;99.90
22035;DHT22;11181;51.002;4.356;2022-09-16T06:40:58;16.00;99.90
22035;DHT22;11181;51.002;4.356;2022-09-16T06:43:25;16.00;99.90
22035;DHT22;11181;51.002;4.356;2022-09-16T06:45:57;16.00;99.90
22035;DHT22;11181;51.002;4.356;2022-09-16T06:48:24;15.90;99.90
22035;DHT22;11181;51.002;4.356;2022-09-16T06:50:57;15.80;99.90
22035;DHT22;11181;51.002;4.356;2022-09-16T06:53:24;15.80;99.90
22035;DHT22;11181;51.002;4.356;2022-09-16T06:55:51;15.80;99.90
22035;DHT22;11181;51.002;4.356;2022-09-16T06:58:18;15.80;99.90
22035;DHT22;11181;51.002;4.356;2022-09-16T07:00:45;15.70;99.90
22035;DHT22;11181;51.002;4.356;2022-09-16T07:03:14;15.60;99.90
22035;DHT22;11181;51.002;4.356;2022-09-16T07:05:41;15.60;99.90
22035;DHT22;11181;51.002;4.356;2022-09-16T07:08:07;15.60;99.90
22035;DHT22;11181;51.002;4.356;2022-09-16T07:10:34;15.60;99.90
22035;DHT22;11181;51.002;4.356;2022-09-16T07:13:01;15.60;99.90
22035;DHT22;11181;51.002;4.356;2022-09-16T07:15:28;15.50;99.90
22035;DHT22;11181;51.002;4.356;2022-09-16T07:17:55;15.50;99.90
22035;DHT22;11181;51.002;4.356;2022-09-16T07:20:23;15.40;99.90
22035;DHT22;11181;51.002;4.356;2022-09-16T07:22:50;15.30;99.90
22035;DHT22;11181;51.002;4.356;2022-09-16T07:25:18;15.20;99.90
22035;DHT22;11181;51.002;4.356;2022-09-16T07:27:45;15.10;99.90
22035;DHT22;11181;51.002;4.356;2022-09-16T07:30:12;15.00;99.90
22035;DHT22;11181;51.002;4.356;2022-09-16T07:32:39;14.90;99.90
22035;DHT22;11181;51.002;4.356;2022-09-16T07:35:07;14.90;99.90
22035;DHT22;11181;51.002;4.356;2022-09-16T07:37:35;15.00;99.90
22035;DHT22;11181;51.002;4.356;2022-09-16T07:40:03;15.10;99.90
22035;DHT22;11181;51.002;4.356;2022-09-16T07:42:31;15.00;99.90
22035;DHT22;11181;51.002;4.356;2022-09-16T07:44:58;15.00;99.90
22035;DHT22;11181;51.002;4.356;2022-09-16T07:47:25;14.90;99.90
22035;DHT22;11181;51.002;4.356;2022-09-16T07:49:52;15.00;99.90
22035;DHT22;11181;51.002;4.356;2022-09-16T07:52:21;15.20;99.90
22035;DHT22;11181;51.002;4.356;2022-09-16T07:54:51;15.30;99.90
22035;DHT22;11181;51.002;4.356;2022-09-16T07:57:18;15.40;99.90
22035;DHT22;11181;51.002;4.356;2022-09-16T07:59:46;15.40;99.90
22035;DHT22;11181;51.002;4.356;2022-09-16T08:02:13;15.50;99.90
22035;DHT22;11181;51.002;4.356;2022-09-16T08:04:40;15.70;99.90
22035;DHT22;11181;51.002;4.356;2022-09-16T08:07:07;15.80;99.90
22035;DHT22;11181;51.002;4.356;2022-09-16T08:09:34;15.80;99.90
22035;DHT22;11181;51.002;4.356;2022-09-16T08:12:04;16.00;99.90
22035;DHT22;11181;51.002;4.356;2022-09-16T08:14:32;16.20;99.90
22035;DHT22;11181;51.002;4.356;2022-09-16T08:16:59;16.40;99.90
22035;DHT22;11181;51.002;4.356;2022-09-16T08:19:28;16.40;99.90
22035;DHT22;11181;51.002;4.356;2022-09-16T08:21:55;16.40;99.90
22035;DHT22;11181;51.002;4.356;2022-09-16T08:24:22;16.40;99.90
22035;DHT22;11181;51.002;4.356;2022-09-16T08:26:49;16.30;99.90
22035;DHT22;11181;51.002;4.356;2022-09-16T08:29:17;16.10;99.90
22035;DHT22;11181;51.002;4.356;2022-09-16T08:31:44;16.00;99.90
22035;DHT22;11181;51.002;4.356;2022-09-16T08:34:11;15.60;99.90
22035;DHT22;11181;51.002;4.356;2022-09-16T08:36:38;15.20;99.90
22035;DHT22;11181;51.002;4.356;2022-09-16T08:39:05;14.90;99.90
22035;DHT22;11181;51.002;4.356;2022-09-16T08:41:42;15.00;99.90
22035;DHT22;11181;51.002;4.356;2022-09-16T08:44:19;15.10;99.90
22035;DHT22;11181;51.002;4.356;2022-09-16T08:46:52;15.20;99.90
22035;DHT22;11181;51.002;4.356;2022-09-16T08:49:31;15.10;99.90
22035;DHT22;11181;51.002;4.356;2022-09-16T08:52:02;15.10;99.90
22035;DHT22;11181;51.002;4.356;2022-09-16T08:54:33;15.20;99.90
22035;DHT22;11181;51.002;4.356;2022-09-16T08:57:04;15.10;99.90
22035;DHT22;11181;51.002;4.356;2022-09-16T08:59:38;15.20;99.90
22035;DHT22;11181;51.002;4.356;2022-09-16T09:02:22;15.10;99.90
22035;DHT22;11181;51.002;4.356;2022-09-16T09:04:49;15.20;99.90
22035;DHT22;11181;51.002;4.356;2022-09-16T09:07:22;15.10;99.90
22035;DHT22;11181;51.002;4.356;2022-09-16T09:09:59;15.20;99.90
22035;DHT22;11181;51.002;4.356;2022-09-16T09:12:33;15.10;99.90
22035;DHT22;11181;51.002;4.356;2022-09-16T09:15:20;15.20;99.90
22035;DHT22;11181;51.002;4.356;2022-09-16T09:17:59;15.30;99.90
22035;DHT22;11181;51.002;4.356;2022-09-16T09:20:35;15.40;99.90
22035;DHT22;11181;51.002;4.356;2022-09-16T09:23:20;15.60;99.90
22035;DHT22;11181;51.002;4.356;2022-09-16T09:25:52;15.70;99.90
22035;DHT22;11181;51.002;4.356;2022-09-16T09:28:42;15.70;99.90
22035;DHT22;11181;51.002;4.356;2022-09-16T09:31:18;15.70;99.90
22035;DHT22;11181;51.002;4.356;2022-09-16T09:33:54;15.80;99.90
22035;DHT22;11181;51.002;4.356;2022-09-16T09:36:42;15.90;99.90
22035;DHT22;11181;51.002;4.356;2022-09-16T09:42:09;16.70;99.90
22035;DHT22;11181;51.002;4.356;2022-09-16T09:44:49;17.00;99.90
22035;DHT22;11181;51.002;4.356;2022-09-16T09:47:22;17.20;99.90
22035;DHT22;11181;51.002;4.356;2022-09-16T09:49:54;17.50;99.90
22035;DHT22;11181;51.002;4.356;2022-09-16T09:52:27;17.70;99.90
22035;DHT22;11181;51.002;4.356;2022-09-16T09:55:07;17.70;99.90
22035;DHT22;11181;51.002;4.356;2022-09-16T09:57:40;17.90;99.90
22035;DHT22;11181;51.002;4.356;2022-09-16T10:00:15;18.00;99.90
22035;DHT22;11181;51.002;4.356;2022-09-16T10:02:44;18.00;99.90
22035;DHT22;11181;51.002;4.356;2022-09-16T10:05:19;17.60;99.90
22035;DHT22;11181;51.002;4.356;2022-09-16T10:07:47;17.40;99.90
22035;DHT22;11181;51.002;4.356;2022-09-16T10:10:18;16.70;99.90
22035;DHT22;11181;51.002;4.356;2022-09-16T10:12:46;16.10;99.90
22035;DHT22;11181;51.002;4.356;2022-09-16T10:15:21;15.70;99.90
22035;DHT22;11181;51.002;4.356;2022-09-16T10:17:51;15.50;99.90
22035;DHT22;11181;51.002;4.356;2022-09-16T10:20:26;15.40;99.90
22035;DHT22;11181;51.002;4.356;2022-09-16T10:22:59;15.40;99.90
22035;DHT22;11181;51.002;4.356;2022-09-16T10:25:29;15.60;99.90
22035;DHT22;11181;51.002;4.356;2022-09-16T10:27:58;15.80;99.90
22035;DHT22;11181;51.002;4.356;2022-09-16T10:30:26;15.60;99.90
22035;DHT22;11181;51.002;4.356;2022-09-16T10:32:56;15.80;99.90
22035;DHT22;11181;51.002;4.356;2022-09-16T10:35:25;16.10;99.90
22035;DHT22;11181;51.002;4.356;2022-09-16T10:37:54;16.40;99.90
22035;DHT22;11181;51.002;4.356;2022-09-16T10:40:22;16.60;99.90
22035;DHT22;11181;51.002;4.356;2022-09-16T10:42:50;17.00;99.90
22035;DHT22;11181;51.002;4.356;2022-09-16T10:45:23;17.30;99.90
22035;DHT22;11181;51.002;4.356;2022-09-16T10:47:56;17.50;99.90
22035;DHT22;11181;51.002;4.356;2022-09-16T10:50:24;17.70;99.90
22035;DHT22;11181;51.002;4.356;2022-09-16T10:52:52;17.80;99.90
22035;DHT22;11181;51.002;4.356;2022-09-16T10:55:22;17.90;99.90
22035;DHT22;11181;51.002;4.356;2022-09-16T10:57:50;17.50;99.90
22035;DHT22;11181;51.002;4.356;2022-09-16T11:00:19;17.40;99.90
22035;DHT22;11181;51.002;4.356;2022-09-16T11:06:31;16.70;99.90
22035;DHT22;11181;51.002;4.356;2022-09-16T11:09:10;16.50;99.90
22035;DHT22;11181;51.002;4.356;2022-09-16T11:11:54;16.50;99.90
22035;DHT22;11181;51.002;4.356;2022-09-16T11:14:36;16.50;99.90
22035;DHT22;11181;51.002;4.356;2022-09-16T11:17:13;16.80;99.90
22035;DHT22;11181;51.002;4.356;2022-09-16T11:19:55;17.00;99.90
22035;DHT22;11181;51.002;4.356;2022-09-16T11:22:27;17.20;99.90
22035;DHT22;11181;51.002;4.356;2022-09-16T11:25:24;17.20;99.90
22035;DHT22;11181;51.002;4.356;2022-09-16T11:28:01;17.40;99.90
22035;DHT22;11181;51.002;4.356;2022-09-16T11:30:38;17.70;99.90
22035;DHT22;11181;51.002;4.356;2022-09-16T11:33:15;17.80;99.90
22035;DHT22;11181;51.002;4.356;2022-09-16T11:38:57;18.20;99.90
22035;DHT22;11181;51.002;4.356;2022-09-16T11:41:32;18.40;99.90
22035;DHT22;11181;51.002;4.356;2022-09-16T11:44:25;18.60;99.90
22035;DHT22;11181;51.002;4.356;2022-09-16T11:47:05;18.80;99.90
22035;DHT22;11181;51.002;4.356;2022-09-16T11:49:51;18.80;99.90
22035;DHT22;11181;51.002;4.356;2022-09-16T11:52:35;18.50;99.90
22035;DHT22;11181;51.002;4.356;2022-09-16T11:55:25;18.50;99.90
22035;DHT22;11181;51.002;4.356;2022-09-16T11:57:57;18.30;99.90
22035;DHT22;11181;51.002;4.356;2022-09-16T12:00:25;17.80;99.90
22035;DHT22;11181;51.002;4.356;2022-09-16T12:02:57;17.50;99.90
22035;DHT22;11181;51.002;4.356;2022-09-16T12:05:28;16.90;99.90
22035;DHT22;11181;51.002;4.356;2022-09-16T12:08:05;16.60;99.90
22035;DHT22;11181;51.002;4.356;2022-09-16T12:10:39;16.10;99.90
22035;DHT22;11181;51.002;4.356;2022-09-16T12:13:13;15.60;99.90
22035;DHT22;11181;51.002;4.356;2022-09-16T12:15:44;15.50;99.90
22035;DHT22;11181;51.002;4.356;2022-09-16T12:18:17;15.50;99.90
22035;DHT22;11181;51.002;4.356;2022-09-16T12:20:48;15.60;99.90
22035;DHT22;11181;51.002;4.356;2022-09-16T12:23:17;15.20;99.90
22035;DHT22;11181;51.002;4.356;2022-09-16T12:28:34;14.40;99.90
22035;DHT22;11181;51.002;4.356;2022-09-16T12:31:07;14.50;99.90
22035;DHT22;11181;51.002;4.356;2022-09-16T12:33:42;14.60;99.90
22035;DHT22;11181;51.002;4.356;2022-09-16T12:36:13;15.10;99.90
22035;DHT22;11181;51.002;4.356;2022-09-16T12:38:40;15.70;99.90
22035;DHT22;11181;51.002;4.356;2022-09-16T12:41:28;16.20;99.90
22035;DHT22;11181;51.002;4.356;2022-09-16T12:44:36;16.60;99.90
22035;DHT22;11181;51.002;4.356;2022-09-16T12:47:29;16.90;99.90
22035;DHT22;11181;51.002;4.356;2022-09-16T12:50:23;17.10;99.90
22035;DHT22;11181;51.002;4.356;2022-09-16T12:53:18;17.30;99.90
22035;DHT22;11181;51.002;4.356;2022-09-16T12:56:01;17.50;99.90
22035;DHT22;11181;51.002;4.356;2022-09-16T12:59:05;17.80;99.90
22035;DHT22;11181;51.002;4.356;2022-09-16T13:01:38;18.30;99.90
22035;DHT22;11181;51.002;4.356;2022-09-16T13:04:14;18.60;99.90
22035;DHT22;11181;51.002;4.356;2022-09-16T13:06:45;18.90;99.90
22035;DHT22;11181;51.002;4.356;2022-09-16T13:09:21;19.00;99.90
22035;DHT22;11181;51.002;4.356;2022-09-16T13:11:53;19.30;99.90
22035;DHT22;11181;51.002;4.356;2022-09-16T13:14:24;19.70;99.90
22035;DHT22;11181;51.002;4.356;2022-09-16T13:16:55;19.80;99.90
22035;DHT22;11181;51.002;4.356;2022-09-16T13:19:38;19.40;99.90
22035;DHT22;11181;51.002;4.356;2022-09-16T13:22:28;19.00;99.90
22035;DHT22;11181;51.002;4.356;2022-09-16T13:25:01;18.10;99.90
22035;DHT22;11181;51.002;4.356;2022-09-16T13:27:35;17.50;99.90
22035;DHT22;11181;51.002;4.356;2022-09-16T13:30:32;17.30;99.90
22035;DHT22;11181;51.002;4.356;2022-09-16T13:33:02;17.50;99.90
22035;DHT22;11181;51.002;4.356;2022-09-16T13:35:38;17.70;99.90
22035;DHT22;11181;51.002;4.356;2022-09-16T13:38:34;17.80;99.90
22035;DHT22;11181;51.002;4.356;2022-09-16T13:41:03;17.90;99.90
22035;DHT22;11181;51.002;4.356;2022-09-16T13:43:33;17.60;99.90
22035;DHT22;11181;51.002;4.356;2022-09-16T13:46:07;17.50;99.90
22035;DHT22;11181;51.002;4.356;2022-09-16T13:48:41;17.30;99.90
22035;DHT22;11181;51.002;4.356;2022-09-16T13:51:15;17.20;99.90
22035;DHT22;11181;51.002;4.356;2022-09-16T13:53:45;17.20;99.90
22035;DHT22;11181;51.002;4.356;2022-09-16T13:56:43;17.20;99.90
22035;DHT22;11181;51.002;4.356;2022-09-16T13:59:23;17.30;99.90
22035;DHT22;11181;51.002;4.356;2022-09-16T14:02:04;17.40;99.90
22035;DHT22;11181;51.002;4.356;2022-09-16T14:04:45;17.40;99.90
22035;DHT22;11181;51.002;4.356;2022-09-16T14:07:29;17.00;99.90
22035;DHT22;11181;51.002;4.356;2022-09-16T14:10:06;15.90;99.90
22035;DHT22;11181;51.002;4.356;2022-09-16T14:12:43;14.90;99.90
22035;DHT22;11181;51.002;4.356;2022-09-16T14:15:12;14.80;99.90
22035;DHT22;11181;51.002;4.356;2022-09-16T14:17:45;14.10;99.90
22035;DHT22;11181;51.002;4.356;2022-09-16T14:20:14;13.80;99.90
22035;DHT22;11181;51.002;4.356;2022-09-16T14:22:41;13.80;99.90
22035;DHT22;11181;51.002;4.356;2022-09-16T14:25:27;13.90;99.90
22035;DHT22;11181;51.002;4.356;2022-09-16T14:30:53;14.10;99.90
22035;DHT22;11181;51.002;4.356;2022-09-16T14:33:25;14.20;99.90
22035;DHT22;11181;51.002;4.356;2022-09-16T14:35:54;14.40;99.90
22035;DHT22;11181;51.002;4.356;2022-09-16T14:38:29;14.60;99.90
22035;DHT22;11181;51.002;4.356;2022-09-16T14:40:57;14.80;99.90
22035;DHT22;11181;51.002;4.356;2022-09-16T14:43:24;15.20;99.90
22035;DHT22;11181;51.002;4.356;2022-09-16T14:45:54;15.50;99.90
22035;DHT22;11181;51.002;4.356;2022-09-16T14:48:27;15.80;99.90
22035;DHT22;11181;51.002;4.356;2022-09-16T14:50:56;15.80;99.90
22035;DHT22;11181;51.002;4.356;2022-09-16T14:53:29;15.90;99.90
22035;DHT22;11181;51.002;4.356;2022-09-16T14:55:56;16.30;99.90
22035;DHT22;11181;51.002;4.356;2022-09-16T14:58:25;16.80;99.90
22035;DHT22;11181;51.002;4.356;2022-09-16T15:00:56;17.20;99.90
22035;DHT22;11181;51.002;4.356;2022-09-16T15:03:29;17.50;99.90
22035;DHT22;11181;51.002;4.356;2022-09-16T15:05:59;17.60;99.90
22035;DHT22;11181;51.002;4.356;2022-09-16T15:08:31;17.80;99.90
22035;DHT22;11181;51.002;4.356;2022-09-16T15:11:03;18.00;99.90
22035;DHT22;11181;51.002;4.356;2022-09-16T15:13:37;18.20;99.90
22035;DHT22;11181;51.002;4.356;2022-09-16T15:16:08;18.00;99.90
22035;DHT22;11181;51.002;4.356;2022-09-16T15:18:38;17.90;99.90
22035;DHT22;11181;51.002;4.356;2022-09-16T15:21:09;17.40;99.90
22035;DHT22;11181;51.002;4.356;2022-09-16T15:23:38;17.40;99.90
22035;DHT22;11181;51.002;4.356;2022-09-16T15:26:12;17.50;99.90
22035;DHT22;11181;51.002;4.356;2022-09-16T15:28:54;17.30;99.90
22035;DHT22;11181;51.002;4.356;2022-09-16T15:31:30;16.80;99.90
22035;DHT22;11181;51.002;4.356;2022-09-16T15:34:00;16.40;99.90
22035;DHT22;11181;51.002;4.356;2022-09-16T15:36:45;16.40;99.90
22035;DHT22;11181;51.002;4.356;2022-09-16T15:39:22;16.20;99.90
22035;DHT22;11181;51.002;4.356;2022-09-16T15:42:00;15.90;99.90
22035;DHT22;11181;51.002;4.356;2022-09-16T15:44:31;15.70;99.90
22035;DHT22;11181;51.002;4.356;2022-09-16T15:46:58;15.40;99.90
22035;DHT22;11181;51.002;4.356;2022-09-16T15:49:28;15.30;99.90
22035;DHT22;11181;51.002;4.356;2022-09-16T15:52:04;15.30;99.90
22035;DHT22;11181;51.002;4.356;2022-09-16T15:54:54;15.50;99.90
22035;DHT22;11181;51.002;4.356;2022-09-16T15:57:30;15.20;99.90
22035;DHT22;11181;51.002;4.356;2022-09-16T16:00:12;15.30;99.90
22035;DHT22;11181;51.002;4.356;2022-09-16T16:04:13;15.40;99.90
22035;DHT22;11181;51.002;4.356;2022-09-16T16:06:17;15.10;99.90
22035;DHT22;11181;51.002;4.356;2022-09-16T16:08:55;14.80;99.90
22035;DHT22;11181;51.002;4.356;2022-09-16T16:11:47;15.00;99.90
22035;DHT22;11181;51.002;4.356;2022-09-16T16:14:29;15.10;99.90
22035;DHT22;11181;51.002;4.356;2022-09-16T16:17:03;15.00;99.90
22035;DHT22;11181;51.002;4.356;2022-09-16T16:22:45;14.80;99.90
22035;DHT22;11181;51.002;4.356;2022-09-16T16:25:31;14.90;99.90